Terminal Aerodrome Forecast
Issued by NWS

Home | Current Version | Previous Version | Graphics & Text | Print | Product List | Glossary On
Versions: 1 2 3 4 5 6 7 8 9 10 11 12 13 14
000
FTUS43 KICT 161100
TAFCNU
TAF
KCNU 161131Z 1612/1712 04007KT P6SM OVC030
      TEMPO 1612/1615 BKN017
     FM161500 07010KT P6SM BKN035
     FM170700 10005KT P6SM BKN017=

USA.gov is the U.S. government's official web portal to all federal, state and local government web resources and services.